createdAt,value
2022-08-07T00:02:41.159Z,102686.72
2022-08-07T00:05:05.723Z,102685.66
2022-08-07T00:07:40.779Z,102683.81
2022-08-07T00:10:26.618Z,102681.94
2022-08-07T00:13:00.541Z,102685.38
2022-08-07T00:15:38.123Z,102679.94
2022-08-07T00:18:18.742Z,102678.97
2022-08-07T00:20:49.595Z,102681.53
2022-08-07T00:23:21.911Z,102670.88
2022-08-07T00:25:52.469Z,102672.56
2022-08-07T00:28:33.807Z,102675.09
2022-08-07T00:31:06.159Z,102666.72
2022-08-07T00:33:42.745Z,102672.13
2022-08-07T00:36:13.458Z,102678.19
2022-08-07T00:38:45.542Z,102667.59
2022-08-07T00:41:15.259Z,102671.78
2022-08-07T00:44:00.495Z,102671.63
2022-08-07T00:46:32.946Z,102677.69
2022-08-07T00:49:03.727Z,102667.09
2022-08-07T00:51:58.136Z,102661.75
2022-08-07T00:54:25.819Z,102658.97
2022-08-07T00:56:55.486Z,102662.44
2022-08-07T00:59:35.365Z,102672.06
2022-08-07T01:02:08.766Z,102668.31
2022-08-07T01:04:43.998Z,102658.47
2022-08-07T01:07:13.701Z,102655.78
2022-08-07T01:10:04.817Z,102665.41
2022-08-07T01:12:35.438Z,102660.94
2022-08-07T01:15:05.457Z,102651.25
2022-08-07T01:17:35.992Z,102650.34
2022-08-07T01:20:16.574Z,102657.31
2022-08-07T01:23:00.466Z,102658.00
2022-08-07T01:25:55.512Z,102657.13
2022-08-07T01:28:26.064Z,102658.78
2022-08-07T01:30:58.748Z,102656.22
2022-08-07T01:33:47.617Z,102655.22
2022-08-07T01:36:18.023Z,102654.38
2022-08-07T01:38:50.225Z,102646.50
2022-08-07T01:41:26.349Z,102646.44
2022-08-07T01:43:56.549Z,102642.69
2022-08-07T01:46:26.061Z,102649.50
2022-08-07T01:48:56.973Z,102648.88
2022-08-07T01:52:02.804Z,102640.09
2022-08-07T01:54:32.920Z,102642.53
2022-08-07T01:57:08.676Z,102637.94
2022-08-07T01:59:52.856Z,102636.13
2022-08-07T02:03:12.110Z,102634.34
2022-08-07T02:05:48.092Z,102637.00
2022-08-07T02:08:13.944Z,102636.69
2022-08-07T02:10:54.903Z,102629.72
2022-08-07T02:13:56.292Z,102642.00
2022-08-07T02:16:14.945Z,102629.59
2022-08-07T02:18:47.204Z,102631.19
2022-08-07T02:21:18.051Z,102629.47
2022-08-07T02:23:49.349Z,102625.84
2022-08-07T02:26:32.759Z,102625.66
2022-08-07T02:29:05.135Z,102622.91
2022-08-07T02:31:43.533Z,102624.72
2022-08-07T02:34:18.196Z,102621.09
2022-08-07T02:36:48.301Z,102625.50
2022-08-07T02:39:43.719Z,102627.22
2022-08-07T02:42:14.655Z,102626.31
2022-08-07T02:44:48.272Z,102627.06
2022-08-07T02:47:23.643Z,102620.03
2022-08-07T02:49:57.993Z,102623.31
2022-08-07T02:52:32.695Z,102615.31
2022-08-07T02:55:03.940Z,102618.00
2022-08-07T02:57:39.171Z,102618.91
2022-08-07T03:00:11.349Z,102621.56
2022-08-07T03:02:54.167Z,102616.22
2022-08-07T03:05:24.926Z,102614.38
2022-08-07T03:08:06.927Z,102614.38
2022-08-07T03:10:41.083Z,102614.38
2022-08-07T03:13:20.249Z,102616.13
2022-08-07T03:15:56.290Z,102617.97
2022-08-07T03:18:34.925Z,102618.88
2022-08-07T03:21:08.524Z,102607.22
2022-08-07T03:24:18.102Z,102623.00
2022-08-07T03:26:33.256Z,102622.78
2022-08-07T03:29:11.130Z,102616.47
2022-08-07T03:31:43.340Z,102620.78
2022-08-07T03:34:18.922Z,102617.69
2022-08-07T03:36:53.173Z,102620.34
2022-08-07T03:39:58.969Z,102617.56
2022-08-07T03:42:14.352Z,102618.31
2022-08-07T03:44:53.426Z,102620.47
2022-08-07T03:47:28.068Z,102622.34
2022-08-07T03:49:59.757Z,102616.00
2022-08-07T03:52:31.490Z,102614.06
2022-08-07T03:55:07.452Z,102611.53
2022-08-07T03:58:34.045Z,102617.50
2022-08-07T04:00:33.557Z,102622.66
2022-08-07T04:03:05.332Z,102614.81
2022-08-07T04:05:40.429Z,102615.53
2022-08-07T04:08:12.866Z,102619.94
2022-08-07T04:10:54.649Z,102612.09
2022-08-07T04:14:10.347Z,102613.88
2022-08-07T04:16:31.529Z,102613.88
2022-08-07T04:19:04.095Z,102618.28
2022-08-07T04:21:58.791Z,102611.19
2022-08-07T04:24:33.716Z,102613.75
2022-08-07T04:27:15.306Z,102617.16
2022-08-07T04:30:01.459Z,102617.16
2022-08-07T04:32:35.954Z,102621.75
2022-08-07T04:35:07.032Z,102618.19
2022-08-07T04:38:01.045Z,102623.47
2022-08-07T04:40:31.360Z,102621.69
2022-08-07T04:43:03.538Z,102619.03
2022-08-07T04:45:58.057Z,102615.53
2022-08-07T04:48:33.268Z,102625.06
2022-08-07T04:51:09.121Z,102621.59
2022-08-07T04:54:01.879Z,102621.19
2022-08-07T04:58:11.706Z,102617.69
2022-08-07T05:00:09.733Z,102618.13
2022-08-07T05:02:21.679Z,102605.50
2022-08-07T05:04:59.801Z,102611.19
2022-08-07T05:07:36.912Z,102608.03
2022-08-07T05:10:11.038Z,102609.06
2022-08-07T05:12:53.013Z,102614.13
2022-08-07T05:15:32.039Z,102616.84
2022-08-07T05:18:03.252Z,102612.38
2022-08-07T05:20:43.075Z,102607.91
2022-08-07T05:23:16.207Z,102607.63
2022-08-07T05:26:11.169Z,102608.47
2022-08-07T05:28:40.489Z,102602.53
2022-08-07T05:31:11.141Z,102608.75
2022-08-07T05:34:01.398Z,102617.19
2022-08-07T05:36:39.083Z,102615.03
2022-08-07T05:40:16.608Z,102611.66
2022-08-07T05:42:01.803Z,102620.47
2022-08-07T05:44:34.367Z,102614.88
2022-08-07T05:47:18.158Z,102611.09
2022-08-07T05:49:49.282Z,102624.09
2022-08-07T05:52:29.796Z,102624.00
2022-08-07T05:55:07.279Z,102631.63
2022-08-07T05:57:42.594Z,102625.47
2022-08-07T06:00:16.560Z,102624.88
2022-08-07T06:02:49.191Z,102626.88
2022-08-07T06:05:28.466Z,102635.34
2022-08-07T06:08:14.683Z,102632.13
2022-08-07T06:10:51.304Z,102641.13
2022-08-07T06:14:10.795Z,102639.75
2022-08-07T06:16:14.127Z,102641.84
2022-08-07T06:18:51.735Z,102634.94
2022-08-07T06:22:16.136Z,102634.47
2022-08-07T06:24:46.282Z,102635.59
2022-08-07T06:27:08.011Z,102629.59
2022-08-07T06:29:39.022Z,102642.28
2022-08-07T06:32:09.066Z,102639.66
2022-08-07T06:34:45.243Z,102637.09
2022-08-07T06:37:17.303Z,102638.94
2022-08-07T06:40:17.060Z,102635.44
2022-08-07T06:42:44.117Z,102630.25
2022-08-07T06:45:18.348Z,102631.31
2022-08-07T06:47:58.477Z,102626.25
2022-08-07T06:50:30.413Z,102627.28
2022-08-07T06:53:04.228Z,102623.81
2022-08-07T06:55:53.397Z,102625.75
2022-08-07T06:58:27.701Z,102611.44
2022-08-07T07:00:59.152Z,102615.97
2022-08-07T07:03:44.597Z,102616.88
2022-08-07T07:06:23.880Z,102614.22
2022-08-07T07:08:53.671Z,102619.72
2022-08-07T07:12:07.517Z,102612.78
2022-08-07T07:14:18.478Z,102612.13
2022-08-07T07:16:53.837Z,102611.31
2022-08-07T07:19:55.342Z,102605.19
2022-08-07T07:22:36.879Z,102600.84
2022-08-07T07:26:30.894Z,102605.47
2022-08-07T07:28:03.177Z,102610.03
2022-08-07T07:30:40.316Z,102604.75
2022-08-07T07:33:12.116Z,102607.50
2022-08-07T07:36:03.934Z,102602.16
2022-08-07T07:38:36.089Z,102610.31
2022-08-07T07:41:08.586Z,102606.69
2022-08-07T07:44:56.199Z,102604.94
2022-08-07T07:47:26.119Z,102600.47
2022-08-07T07:50:33.580Z,102613.03
2022-08-07T07:52:48.615Z,102604.06
2022-08-07T07:55:20.809Z,102599.56
2022-08-07T07:57:58.162Z,102597.78
2022-08-07T08:00:34.099Z,102599.66
2022-08-07T08:03:08.206Z,102598.69
2022-08-07T08:05:54.089Z,102598.69
2022-08-07T08:08:35.014Z,102588.81
2022-08-07T08:11:08.676Z,102593.34
2022-08-07T08:13:53.124Z,102598.72
2022-08-07T08:16:29.812Z,102583.47
2022-08-07T08:19:17.376Z,102585.28
2022-08-07T08:22:04.547Z,102587.06
2022-08-07T08:25:04.407Z,102582.56
2022-08-07T08:27:44.038Z,102587.97
2022-08-07T08:30:27.346Z,102583.47
2022-08-07T08:33:01.680Z,102585.25
2022-08-07T08:35:42.865Z,102579.88
2022-08-07T08:38:19.659Z,102581.69
2022-08-07T08:40:51.393Z,102583.47
2022-08-07T08:43:32.019Z,102580.78
2022-08-07T08:46:15.752Z,102582.59
2022-08-07T08:48:53.610Z,102587.94
2022-08-07T08:52:12.683Z,102591.53
2022-08-07T08:54:24.215Z,102584.38
2022-08-07T08:56:55.682Z,102581.63
2022-08-07T08:59:29.193Z,102577.13
2022-08-07T09:02:03.496Z,102570.84
2022-08-07T09:04:46.314Z,102582.50
2022-08-07T09:07:23.274Z,102575.34
2022-08-07T09:09:58.345Z,102578.00
2022-08-07T09:12:35.921Z,102578.91
2022-08-07T09:16:24.885Z,102581.63
2022-08-07T09:18:22.668Z,102568.16
2022-08-07T09:21:01.062Z,102569.94
2022-08-07T09:24:33.476Z,102563.69
2022-08-07T09:26:28.174Z,102571.75
2022-08-07T09:30:03.244Z,102571.75
2022-08-07T09:31:57.797Z,102574.38
2022-08-07T09:34:30.094Z,102580.66
2022-08-07T09:37:05.959Z,102581.56
2022-08-07T09:39:53.642Z,102582.41
2022-08-07T09:42:33.870Z,102575.13
2022-08-07T09:47:54.990Z,102567.91
2022-08-07T09:48:12.226Z,102578.59
2022-08-07T09:50:54.251Z,102584.69
2022-08-07T09:53:41.406Z,102573.09
2022-08-07T09:57:52.605Z,102565.13
2022-08-07T10:00:30.035Z,102562.53
2022-08-07T10:04:05.330Z,102566.22
2022-08-07T10:06:35.674Z,102552.84
2022-08-07T10:09:42.710Z,102553.75
2022-08-07T10:12:26.444Z,102551.03
2022-08-07T10:15:28.416Z,102543.88
2022-08-07T10:18:36.838Z,102537.56
2022-08-07T10:22:12.331Z,102524.13
2022-08-07T10:24:29.508Z,102527.75
2022-08-07T10:27:19.866Z,102510.75
2022-08-07T10:30:12.166Z,102514.31
2022-08-07T10:33:08.509Z,102518.81
2022-08-07T10:36:05.501Z,102521.53
2022-08-07T10:38:52.059Z,102514.34
2022-08-07T10:41:47.412Z,102520.63
2022-08-07T10:44:33.733Z,102513.44
2022-08-07T10:47:27.193Z,102512.56
2022-08-07T10:50:19.925Z,102510.75
2022-08-07T10:53:08.119Z,102511.63
2022-08-07T10:55:47.090Z,102507.16
2022-08-07T10:58:32.981Z,102506.22
2022-08-07T11:01:23.752Z,102500.84
2022-08-07T11:04:23.099Z,102499.06
2022-08-07T11:07:04.859Z,102494.56
2022-08-07T11:10:07.568Z,102490.09
2022-08-07T11:12:45.708Z,102491.88
2022-08-07T11:15:31.489Z,102484.75
2022-08-07T11:18:06.134Z,102483.84
2022-08-07T11:20:46.416Z,102478.44
2022-08-07T11:23:30.612Z,102475.75
2022-08-07T11:26:13.375Z,102483.81
2022-08-07T11:28:53.367Z,102476.63
2022-08-07T11:31:35.309Z,102482.84
2022-08-07T11:34:11.894Z,102474.72
2022-08-07T11:36:56.704Z,102472.91
2022-08-07T11:40:01.068Z,102476.44
2022-08-07T11:42:44.005Z,102483.56
2022-08-07T11:45:23.848Z,102479.97
2022-08-07T11:48:29.550Z,102480.81
2022-08-07T11:51:44.758Z,102479.03
2022-08-07T11:54:36.344Z,102478.94
2022-08-07T11:57:24.993Z,102474.47
2022-08-07T12:00:19.073Z,102480.59
2022-08-07T12:03:42.269Z,102475.25
2022-08-07T12:06:50.301Z,102471.72
2022-08-07T12:09:28.785Z,102469.03
2022-08-07T12:12:10.531Z,102469.16
2022-08-07T12:15:01.407Z,102465.66
2022-08-07T12:17:40.729Z,102469.28
2022-08-07T12:20:33.406Z,102463.94
2022-08-07T12:24:06.248Z,102461.28
2022-08-07T12:26:40.629Z,102455.97
2022-08-07T12:29:37.549Z,102459.56
2022-08-07T12:32:20.224Z,102460.47
2022-08-07T12:34:55.954Z,102458.59
2022-08-07T12:38:09.098Z,102460.41
2022-08-07T12:40:46.273Z,102462.22
2022-08-07T12:44:02.069Z,102458.66
2022-08-07T12:46:26.293Z,102459.59
2022-08-07T12:49:25.665Z,102451.53
2022-08-07T12:52:14.463Z,102444.31
2022-08-07T12:55:00.132Z,102462.16
2022-08-07T12:57:59.134Z,102448.72
2022-08-07T13:00:34.539Z,102450.50
2022-08-07T13:03:22.981Z,102454.06
2022-08-07T13:06:29.348Z,102446.00
2022-08-07T13:10:17.719Z,102449.59
2022-08-07T13:12:15.233Z,102447.81
2022-08-07T13:14:55.280Z,102451.38
2022-08-07T13:17:40.606Z,102445.16
2022-08-07T13:20:18.787Z,102443.38
2022-08-07T13:23:09.716Z,102446.13
2022-08-07T13:26:00.745Z,102443.44
2022-08-07T13:28:36.882Z,102446.94
2022-08-07T13:31:15.254Z,102440.69
2022-08-07T13:34:31.190Z,102441.59
2022-08-07T13:36:46.451Z,102429.97
2022-08-07T13:40:33.386Z,102437.16
2022-08-07T13:42:25.833Z,102431.81
2022-08-07T13:46:06.863Z,102427.31
2022-08-07T13:48:08.086Z,102433.59
2022-08-07T13:50:59.973Z,102425.50
2022-08-07T13:53:55.220Z,102426.38
2022-08-07T13:56:36.366Z,102426.34
2022-08-07T13:59:15.813Z,102422.78
2022-08-07T14:02:04.767Z,102425.41
2022-08-07T14:04:49.482Z,102420.00
2022-08-07T14:07:23.934Z,102411.09
2022-08-07T14:10:12.469Z,102415.59
2022-08-07T14:12:55.843Z,102416.50
2022-08-07T14:15:36.061Z,102424.53
2022-08-07T14:18:24.450Z,102427.19
2022-08-07T14:21:08.281Z,102417.38
2022-08-07T14:24:01.153Z,102418.25
2022-08-07T14:26:50.220Z,102420.94
2022-08-07T14:30:06.503Z,102424.50
2022-08-07T14:32:21.859Z,102410.19
2022-08-07T14:34:58.015Z,102409.25
2022-08-07T14:37:39.297Z,102416.44
2022-08-07T14:40:27.245Z,102416.44
2022-08-07T14:43:55.186Z,102411.06
2022-08-07T14:45:56.819Z,102408.34
2022-08-07T14:48:32.589Z,102404.72
2022-08-07T14:51:15.756Z,102408.31
2022-08-07T14:54:08.614Z,102408.38
2022-08-07T14:56:43.078Z,102408.38
2022-08-07T15:00:03.596Z,102405.69
2022-08-07T15:02:34.753Z,102404.81
2022-08-07T15:05:20.509Z,102400.34
2022-08-07T15:07:54.644Z,102397.63
2022-08-07T15:10:27.135Z,102399.44
2022-08-07T15:13:06.131Z,102395.84
2022-08-07T15:15:40.752Z,102391.34
2022-08-07T15:18:28.591Z,102390.41
2022-08-07T15:21:44.062Z,102392.22
2022-08-07T15:25:15.071Z,102394.00
2022-08-07T15:26:58.907Z,102385.03
2022-08-07T15:32:39.078Z,102386.84
2022-08-07T15:35:17.837Z,102385.03
2022-08-07T15:38:17.566Z,102387.72
2022-08-07T15:41:00.118Z,102379.63
2022-08-07T15:43:56.410Z,102386.81
2022-08-07T15:46:32.490Z,102385.00
2022-08-07T15:52:10.588Z,102383.19
2022-08-07T15:54:46.322Z,102384.03
2022-08-07T15:57:28.138Z,102383.13
2022-08-07T16:00:31.863Z,102380.41
2022-08-07T16:03:03.881Z,102378.56
2022-08-07T16:05:34.335Z,102375.91
2022-08-07T16:08:32.160Z,102382.19
2022-08-07T16:11:25.368Z,102380.22
2022-08-07T16:14:17.051Z,102377.59
2022-08-07T16:17:15.976Z,102378.38
2022-08-07T16:20:04.726Z,102371.19
2022-08-07T16:22:55.673Z,102374.81
2022-08-07T16:25:54.650Z,102374.63
2022-08-07T16:30:05.547Z,102375.69
2022-08-07T16:31:57.825Z,102382.81
2022-08-07T16:38:04.324Z,102380.72
2022-08-07T16:40:57.188Z,102371.69
2022-08-07T16:44:03.701Z,102394.06
2022-08-07T16:47:25.174Z,102389.50
2022-08-07T16:50:35.417Z,102378.59
2022-08-07T16:53:48.069Z,102371.63
2022-08-07T16:56:22.425Z,102377.09
2022-08-07T16:59:11.429Z,102379.81
2022-08-07T17:01:58.965Z,102375.31
2022-08-07T17:04:57.868Z,102371.63
2022-08-07T17:07:55.600Z,102378.84
2022-08-07T17:10:34.677Z,102376.72
2022-08-07T17:14:19.590Z,102374.94
2022-08-07T17:16:56.110Z,102371.28
2022-08-07T17:20:00.507Z,102378.59
2022-08-07T17:22:38.011Z,102368.56
2022-08-07T17:25:18.517Z,102374.81
2022-08-07T17:28:01.177Z,102365.13
2022-08-07T17:30:57.724Z,102360.53
2022-08-07T17:34:09.670Z,102365.88
2022-08-07T17:36:31.440Z,102364.06
2022-08-07T17:39:10.109Z,102363.16
2022-08-07T17:42:03.690Z,102354.25
2022-08-07T17:44:49.558Z,102357.84
2022-08-07T17:47:37.939Z,102358.75
2022-08-07T17:50:19.866Z,102353.34
2022-08-07T17:52:59.039Z,102356.09
2022-08-07T17:56:00.592Z,102356.81
2022-08-07T17:58:35.838Z,102351.44
2022-08-07T18:01:18.096Z,102355.81
2022-08-07T18:04:07.758Z,102354.09
2022-08-07T18:07:19.069Z,102355.84
2022-08-07T18:10:04.716Z,102359.28
2022-08-07T18:12:44.979Z,102353.06
2022-08-07T18:15:22.784Z,102360.97
2022-08-07T18:21:07.462Z,102368.97
2022-08-07T18:22:40.378Z,102361.78
2022-08-07T18:25:39.049Z,102364.38
2022-08-07T18:28:34.016Z,102362.63
2022-08-07T18:31:08.105Z,102368.91
2022-08-07T18:34:00.114Z,102362.63
2022-08-07T18:36:42.692Z,102368.78
2022-08-07T18:40:06.785Z,102372.28
2022-08-07T18:42:27.712Z,102378.50
2022-08-07T18:45:43.341Z,102375.81
2022-08-07T18:48:02.663Z,102389.16
2022-08-07T18:50:45.689Z,102397.13
2022-08-07T18:53:36.963Z,102389.88
2022-08-07T18:56:14.569Z,102391.63
2022-08-07T18:59:01.669Z,102397.72
2022-08-07T19:02:19.117Z,102393.22
2022-08-07T19:04:39.718Z,102397.66
2022-08-07T19:07:35.210Z,102404.81
2022-08-07T19:10:21.384Z,102404.72
2022-08-07T19:12:59.164Z,102405.50
2022-08-07T19:16:05.362Z,102405.41
2022-08-07T19:19:40.746Z,102409.78
2022-08-07T19:22:12.850Z,102423.06
2022-08-07T19:24:48.693Z,102415.03
2022-08-07T19:28:29.453Z,102424.81
2022-08-07T19:31:03.464Z,102427.38
2022-08-07T19:33:10.054Z,102426.41
2022-08-07T19:35:46.785Z,102433.47
2022-08-07T19:38:17.953Z,102440.53
2022-08-07T19:40:52.076Z,102436.97
2022-08-07T19:43:43.601Z,102445.72
2022-08-07T19:46:12.973Z,102444.84
2022-08-07T19:48:54.027Z,102444.72
2022-08-07T19:51:51.034Z,102445.53
2022-08-07T19:54:34.645Z,102447.34
2022-08-07T19:57:59.983Z,102450.81
2022-08-07T19:59:59.860Z,102450.78
2022-08-07T20:02:34.717Z,102459.69
2022-08-07T20:05:08.045Z,102448.06
2022-08-07T20:07:48.173Z,102447.97
2022-08-07T20:10:37.724Z,102453.25
2022-08-07T20:13:23.719Z,102460.25
2022-08-07T20:15:57.855Z,102451.28
2022-08-07T20:18:33.465Z,102455.56
2022-08-07T20:21:14.874Z,102455.44
2022-08-07T20:23:57.982Z,102448.19
2022-08-07T20:26:38.993Z,102446.38
2022-08-07T20:29:17.058Z,102444.50
2022-08-07T20:32:06.092Z,102445.22
2022-08-07T20:34:51.368Z,102440.50
2022-08-07T20:37:26.065Z,102446.69
2022-08-07T20:40:05.043Z,102439.41
2022-08-07T20:42:56.275Z,102437.41
2022-08-07T20:45:32.957Z,102436.38
2022-08-07T20:48:25.890Z,102442.47
2022-08-07T20:50:59.759Z,102442.28
2022-08-07T20:54:04.820Z,102438.59
2022-08-07T20:56:26.112Z,102443.84
2022-08-07T20:58:56.594Z,102442.78
2022-08-07T21:01:29.743Z,102446.34
2022-08-07T21:04:22.610Z,102446.22
2022-08-07T21:06:55.128Z,102445.38
2022-08-07T21:09:51.993Z,102438.16
2022-08-07T21:12:28.690Z,102441.53
2022-08-07T21:15:01.105Z,102442.47
2022-08-07T21:18:03.508Z,102446.84
2022-08-07T21:20:29.571Z,102449.34
2022-08-07T21:23:07.733Z,102453.78
2022-08-07T21:25:56.949Z,102451.91
2022-08-07T21:28:50.249Z,102444.53
2022-08-07T21:31:49.752Z,102456.94
2022-08-07T21:34:26.404Z,102451.50
2022-08-07T21:37:00.703Z,102455.72
2022-08-07T21:39:46.104Z,102452.09
2022-08-07T21:42:40.885Z,102451.06
2022-08-07T21:46:05.280Z,102451.09
2022-08-07T21:48:28.655Z,102438.47
2022-08-07T21:51:02.005Z,102443.72
2022-08-07T21:53:46.246Z,102441.75
2022-08-07T21:56:39.865Z,102446.19
2022-08-07T21:59:24.311Z,102443.44
2022-08-07T22:02:10.786Z,102448.69
2022-08-07T22:04:53.738Z,102445.97
2022-08-07T22:07:31.593Z,102451.16
2022-08-07T22:10:16.861Z,102443.03
2022-08-07T22:12:49.644Z,102452.84
2022-08-07T22:16:41.170Z,102452.56
2022-08-07T22:18:17.825Z,102452.44
2022-08-07T22:20:52.637Z,102461.91
2022-08-07T22:23:23.473Z,102462.94
2022-08-07T22:26:01.128Z,102463.69
2022-08-07T22:28:36.466Z,102467.16
2022-08-07T22:31:09.561Z,102464.28
2022-08-07T22:33:57.132Z,102463.13
2022-08-07T22:36:32.289Z,102460.50
2022-08-07T22:39:04.565Z,102467.19
2022-08-07T22:42:03.654Z,102463.78
2022-08-07T22:44:32.807Z,102470.97
2022-08-07T22:47:23.506Z,102463.72
2022-08-07T22:50:13.668Z,102466.31
2022-08-07T22:53:16.630Z,102465.19
2022-08-07T22:55:51.239Z,102466.22
2022-08-07T22:58:34.694Z,102462.69
2022-08-07T23:01:17.903Z,102464.16
2022-08-07T23:03:57.241Z,102465.91
2022-08-07T23:06:43.276Z,102466.81
2022-08-07T23:10:05.051Z,102469.25
2022-08-07T23:12:34.164Z,102468.34
2022-08-07T23:15:11.448Z,102474.50
2022-08-07T23:18:12.771Z,102474.88
2022-08-07T23:20:53.263Z,102481.59
2022-08-07T23:24:06.820Z,102474.03
2022-08-07T23:26:27.931Z,102472.41
2022-08-07T23:29:43.398Z,102473.44
2022-08-07T23:34:19.026Z,102471.56
2022-08-07T23:35:14.318Z,102472.31
2022-08-07T23:38:09.948Z,102475.03
2022-08-07T23:40:51.776Z,102469.75
2022-08-07T23:43:38.062Z,102470.72
2022-08-07T23:46:15.187Z,102474.81
2022-08-07T23:49:13.709Z,102462.19
2022-08-07T23:53:01.917Z,102466.56
2022-08-07T23:54:45.854Z,102469.97
2022-08-07T23:57:22.700Z,102468.22
